createdAt,value
2018-12-25T00:01:00.391Z,99554.38
2018-12-25T00:03:30.746Z,99555.09
2018-12-25T00:06:01.117Z,99561.66
2018-12-25T00:08:31.361Z,99555.79
2018-12-25T00:11:01.645Z,99560.16
2018-12-25T00:13:31.963Z,99559.23
2018-12-25T00:16:02.210Z,99560.34
2018-12-25T00:18:32.540Z,99563.37
2018-12-25T00:21:02.726Z,99570.12
2018-12-25T00:23:33.113Z,99573.08
2018-12-25T00:26:03.350Z,99578.08
2018-12-25T00:28:33.779Z,99574.86
2018-12-25T00:31:04.075Z,99570.20
2018-12-25T00:33:34.641Z,99573.73
2018-12-25T00:36:04.928Z,99573.97
2018-12-25T00:38:35.307Z,99580.89
2018-12-25T00:41:05.672Z,99578.94
2018-12-25T00:43:36.055Z,99585.89
2018-12-25T00:46:06.466Z,99594.20
2018-12-25T00:48:36.931Z,99591.06
2018-12-25T00:51:07.349Z,99608.56
2018-12-25T00:53:37.783Z,99616.53
2018-12-25T00:56:08.099Z,99617.27
2018-12-25T00:58:38.486Z,99620.45
2018-12-25T01:01:08.936Z,99619.47
2018-12-25T01:03:39.251Z,99616.11
2018-12-25T01:06:09.625Z,99612.60
2018-12-25T01:08:39.938Z,99610.08
2018-12-25T01:11:10.248Z,99613.63
2018-12-25T01:13:41.629Z,99603.03
2018-12-25T01:16:11.876Z,99597.23
2018-12-25T01:18:42.201Z,99594.91
2018-12-25T01:21:12.577Z,99586.12
2018-12-25T01:23:42.927Z,99583.70
2018-12-25T01:26:14.012Z,99576.04
2018-12-25T01:28:44.477Z,99578.95
2018-12-25T01:31:14.820Z,99573.31
2018-12-25T01:33:45.295Z,99569.98
2018-12-25T01:36:15.761Z,99570.09
2018-12-25T01:38:46.131Z,99577.94
2018-12-25T01:41:16.523Z,99576.69
2018-12-25T01:43:46.860Z,99581.08
2018-12-25T01:46:17.184Z,99591.72
2018-12-25T01:48:47.488Z,99585.73
2018-12-25T01:51:17.842Z,99577.28
2018-12-25T01:53:48.338Z,99571.94
2018-12-25T01:56:18.736Z,99567.80
2018-12-25T01:58:49.055Z,99569.16
2018-12-25T02:01:19.459Z,99562.78
2018-12-25T02:03:49.870Z,99567.83
2018-12-25T02:06:20.195Z,99578.18
2018-12-25T02:08:50.529Z,99587.41
2018-12-25T02:11:20.806Z,99602.91
2018-12-25T02:13:51.158Z,99602.25
2018-12-25T02:16:21.604Z,99611.05
2018-12-25T02:18:51.866Z,99616.66
2018-12-25T02:21:22.154Z,99620.77
2018-12-25T02:23:52.439Z,99621.77
2018-12-25T02:26:22.713Z,99625.48
2018-12-25T02:28:53.033Z,99620.06
2018-12-25T02:31:23.332Z,99615.93
2018-12-25T02:33:53.600Z,99614.31
2018-12-25T02:36:23.956Z,99597.74
2018-12-25T02:38:54.328Z,99590.80
2018-12-25T02:41:24.654Z,99580.70
2018-12-25T02:43:54.833Z,99582.19
2018-12-25T02:46:25.100Z,99583.08
2018-12-25T02:48:55.400Z,99573.27
2018-12-25T02:51:25.730Z,99572.19
2018-12-25T02:53:56.234Z,99575.73
2018-12-25T02:56:26.437Z,99574.95
2018-12-25T02:58:56.675Z,99583.34
2018-12-25T03:01:27.336Z,99568.06
2018-12-25T03:03:57.785Z,99570.35
2018-12-25T03:06:28.164Z,99571.55
2018-12-25T03:08:58.503Z,99575.06
2018-12-25T03:11:28.867Z,99582.98
2018-12-25T03:13:59.220Z,99574.42
2018-12-25T03:16:29.568Z,99575.22
2018-12-25T03:18:59.992Z,99568.84
2018-12-25T03:21:30.298Z,99568.52
2018-12-25T03:24:00.644Z,99578.45
2018-12-25T03:26:30.939Z,99571.03
2018-12-25T03:29:01.194Z,99572.81
2018-12-25T03:31:31.414Z,99568.69
2018-12-25T03:34:01.588Z,99572.92
2018-12-25T03:36:31.863Z,99578.40
2018-12-25T03:39:02.117Z,99580.22
2018-12-25T03:41:32.441Z,99577.31
2018-12-25T03:44:02.795Z,99575.11
2018-12-25T03:46:33.070Z,99576.78
2018-12-25T03:49:03.462Z,99576.31
2018-12-25T03:51:33.685Z,99570.14
2018-12-25T03:54:04.050Z,99570.83
2018-12-25T03:56:34.391Z,99577.25
2018-12-25T03:59:04.738Z,99572.34
2018-12-25T04:01:34.983Z,99566.91
2018-12-25T04:04:05.344Z,99570.51
2018-12-25T04:06:35.657Z,99568.00
2018-12-25T04:09:07.998Z,99563.56
2018-12-25T04:11:38.364Z,99561.53
2018-12-25T04:14:09.614Z,99567.48
2018-12-25T04:16:39.944Z,99564.86
2018-12-25T04:19:10.388Z,99574.06
2018-12-25T04:21:40.729Z,99576.28
2018-12-25T04:24:11.048Z,99567.05
2018-12-25T04:26:41.324Z,99572.52
2018-12-25T04:29:11.636Z,99577.55
2018-12-25T04:32:01.103Z,99570.43
2018-12-25T04:34:43.117Z,99496.80
2018-12-25T04:37:25.097Z,99564.68
2018-12-25T04:40:14.500Z,99569.71
2018-12-25T04:43:03.960Z,99544.16
2018-12-25T04:45:46.540Z,99494.62
2018-12-25T04:48:36.094Z,99564.50
2018-12-25T04:51:06.435Z,99562.73
2018-12-25T04:53:56.023Z,99562.16
2018-12-25T04:56:38.370Z,99561.31
2018-12-25T04:59:27.927Z,99562.42
2018-12-25T05:02:10.166Z,99568.36
2018-12-25T05:04:40.534Z,99572.13
2018-12-25T05:07:30.098Z,99577.25
2018-12-25T05:10:19.511Z,99573.48
2018-12-25T05:13:01.917Z,99569.77
2018-12-25T05:15:32.257Z,99567.75
2018-12-25T05:18:21.737Z,99571.09
2018-12-25T05:21:11.194Z,99554.78
2018-12-25T05:24:00.703Z,99533.48
2018-12-25T05:26:42.889Z,99583.23
2018-12-25T05:29:32.342Z,99565.12
2018-12-25T05:32:14.676Z,99583.92
2018-12-25T05:35:04.225Z,99587.95
2018-12-25T05:37:46.272Z,99571.38
2018-12-25T05:40:35.820Z,99592.59
2018-12-25T05:43:18.348Z,99593.06
2018-12-25T05:46:26.949Z,99591.28
2018-12-25T05:49:08.743Z,99598.75
2018-12-25T05:51:58.242Z,99592.70
2018-12-25T05:54:40.306Z,99589.06
2018-12-25T05:57:10.761Z,99553.06
2018-12-25T06:00:00.347Z,99603.42
2018-12-25T06:02:42.688Z,99606.27
2018-12-25T06:05:32.217Z,99610.63
2018-12-25T06:08:14.310Z,99609.33
2018-12-25T06:11:03.903Z,99607.80
2018-12-25T06:13:45.910Z,99561.36
2018-12-25T06:16:16.358Z,99592.53
2018-12-25T06:19:05.874Z,99590.50
2018-12-25T06:21:55.428Z,99595.72
2018-12-25T06:24:46.033Z,99536.48
2018-12-25T06:27:16.264Z,99645.65
2018-12-25T06:30:06.080Z,99602.97
2018-12-25T06:32:55.513Z,99591.58
2018-12-25T06:35:37.463Z,99599.52
2018-12-25T06:38:26.984Z,99608.20
2018-12-25T06:40:57.484Z,99592.91
2018-12-25T06:46:47.933Z,99570.25
2018-12-25T06:49:37.327Z,99593.58
2018-12-25T06:52:19.559Z,99595.13
2018-12-25T06:55:09.208Z,99619.80
2018-12-25T06:57:51.561Z,99539.21
2018-12-25T07:00:41.166Z,99597.52
2018-12-25T07:03:22.897Z,99598.23
2018-12-25T07:06:12.408Z,99603.92
2018-12-25T07:09:01.999Z,99598.35
2018-12-25T07:11:51.541Z,99607.59
2018-12-25T07:14:33.554Z,99594.43
2018-12-25T07:17:22.979Z,99589.21
2018-12-25T07:20:05.523Z,99561.73
2018-12-25T07:25:51.369Z,99606.98
2018-12-25T07:28:21.692Z,99601.19
2018-12-25T07:30:51.886Z,99600.35
2018-12-25T07:33:22.159Z,99595.14
2018-12-25T07:35:52.363Z,99593.59
2018-12-25T07:38:22.585Z,99596.20
2018-12-25T07:40:52.920Z,99597.98
2018-12-25T07:43:23.356Z,99596.33
2018-12-25T07:46:12.833Z,99598.82
2018-12-25T07:49:02.383Z,99555.08
2018-12-25T07:51:44.488Z,99555.92
2018-12-25T07:54:33.836Z,99615.52
2018-12-25T07:57:16.273Z,99570.72
2018-12-25T08:00:06.236Z,99614.11
2018-12-25T08:02:36.631Z,99567.76
2018-12-25T08:05:26.118Z,99602.36
2018-12-25T08:08:08.263Z,99526.54
2018-12-25T08:10:57.878Z,99656.30
2018-12-25T08:13:28.384Z,99547.95
2018-12-25T08:15:58.905Z,99606.47
2018-12-25T08:18:29.483Z,99613.33
2018-12-25T08:21:19.055Z,99615.83
2018-12-25T08:24:08.506Z,99580.91
2018-12-25T08:26:50.941Z,99614.84
2018-12-25T08:29:40.435Z,99564.24
2018-12-25T08:32:22.922Z,99608.34
2018-12-25T08:35:12.566Z,99617.21
2018-12-25T08:37:55.170Z,99592.26
2018-12-25T08:40:44.537Z,99628.22
2018-12-25T08:43:26.786Z,99596.55
2018-12-25T08:46:16.352Z,99617.88
2018-12-25T08:49:05.882Z,99613.54
2018-12-25T08:51:48.498Z,99576.76
2018-12-25T08:54:37.958Z,99615.64
2018-12-25T08:57:20.301Z,99644.19
2018-12-25T09:00:12.100Z,99629.00
2018-12-25T09:02:54.495Z,99624.47
2018-12-25T09:05:43.953Z,99631.36
2018-12-25T09:08:34.546Z,99664.28
2018-12-25T09:11:17.100Z,99618.87
2018-12-25T09:14:06.597Z,99551.19
2018-12-25T09:16:48.793Z,99615.52
2018-12-25T09:19:38.258Z,99599.75
2018-12-25T09:22:24.509Z,99650.02
2018-12-25T09:25:07.153Z,99600.17
2018-12-25T09:27:56.634Z,99623.38
2018-12-25T09:30:38.460Z,99618.18
2018-12-25T09:33:27.870Z,99607.70
2018-12-25T09:36:10.395Z,99571.45
2018-12-25T09:38:59.869Z,99687.22
2018-12-25T09:41:41.856Z,99663.23
2018-12-25T09:44:31.339Z,99664.36
2018-12-25T09:47:13.286Z,99746.11
2018-12-25T09:50:02.749Z,99656.86
2018-12-25T09:52:46.908Z,99663.89
2018-12-25T09:55:29.276Z,99664.23
2018-12-25T09:58:18.774Z,99661.98
2018-12-25T10:01:00.833Z,99660.16
2018-12-25T10:03:50.248Z,99603.49
2018-12-25T10:06:39.705Z,99611.30
2018-12-25T10:09:29.237Z,99656.98
2018-12-25T10:12:11.773Z,99639.52
2018-12-25T10:15:01.142Z,99654.88
2018-12-25T10:17:42.826Z,99669.72
2018-12-25T10:20:32.220Z,99663.38
2018-12-25T10:23:14.319Z,99674.84
2018-12-25T10:26:03.777Z,99680.03
2018-12-25T10:28:46.058Z,99604.73
2018-12-25T10:31:35.432Z,99675.61
2018-12-25T10:34:17.992Z,99679.95
2018-12-25T10:37:00.423Z,99646.07
2018-12-25T10:39:30.853Z,99681.64
2018-12-25T10:42:01.130Z,99683.72
2018-12-25T10:44:50.727Z,99677.46
2018-12-25T10:47:32.991Z,99684.52
2018-12-25T10:50:22.501Z,99680.11
2018-12-25T10:53:04.599Z,99674.59
2018-12-25T10:55:54.875Z,99659.09
2018-12-25T10:58:36.737Z,99695.26
2018-12-25T11:01:29.296Z,99649.92
2018-12-25T11:04:18.772Z,99655.30
2018-12-25T11:07:08.459Z,99665.48
2018-12-25T11:09:50.943Z,99595.72
2018-12-25T11:12:40.463Z,99643.48
2018-12-25T11:15:22.728Z,99635.13
2018-12-25T11:18:12.131Z,99588.30
2018-12-25T11:20:54.802Z,99564.51
2018-12-25T11:23:44.345Z,99621.48
2018-12-25T11:26:27.043Z,99620.37
2018-12-25T11:29:16.485Z,99618.48
2018-12-25T11:31:58.572Z,99573.38
2018-12-25T11:34:47.902Z,99611.09
2018-12-25T11:37:30.278Z,99591.44
2018-12-25T11:40:19.673Z,99547.55
2018-12-25T11:43:02.000Z,99525.83
2018-12-25T11:45:51.478Z,99586.88
2018-12-25T11:48:34.183Z,99619.27
2018-12-25T11:51:26.653Z,99608.41
2018-12-25T11:54:01.031Z,99567.59
2018-12-25T11:56:34.041Z,99567.42
2018-12-25T11:59:06.359Z,99571.02
2018-12-25T12:01:40.273Z,99579.59
2018-12-25T12:04:15.213Z,99573.34
2018-12-25T12:06:48.002Z,99576.58
2018-12-25T12:09:28.586Z,99577.79
2018-12-25T12:12:02.359Z,99578.34
2018-12-25T12:14:32.788Z,99585.16
2018-12-25T12:17:06.330Z,99583.88
2018-12-25T12:19:41.029Z,99592.62
2018-12-25T12:22:11.755Z,99586.95
2018-12-25T12:24:45.240Z,99578.89
2018-12-25T12:27:16.496Z,99574.15
2018-12-25T12:29:50.032Z,99572.54
2018-12-25T12:32:20.655Z,99573.73
2018-12-25T12:35:03.435Z,99579.88
2018-12-25T12:37:36.270Z,99580.88
2018-12-25T12:40:09.083Z,99576.14
2018-12-25T12:42:39.878Z,99580.02
2018-12-25T12:45:13.776Z,99591.77
2018-12-25T12:47:44.637Z,99601.97
2018-12-25T12:50:16.129Z,99593.55
2018-12-25T12:52:47.210Z,99590.48
2018-12-25T12:55:18.170Z,99589.77
2018-12-25T12:57:49.114Z,99595.39
2018-12-25T13:00:20.313Z,99589.63
2018-12-25T13:02:51.302Z,99582.56
2018-12-25T13:05:23.657Z,99587.72
2018-12-25T13:07:54.354Z,99590.86
2018-12-25T13:10:28.093Z,99593.46
2018-12-25T13:12:57.912Z,99603.00
2018-12-25T13:15:30.592Z,99598.50
2018-12-25T13:18:01.553Z,99599.38
2018-12-25T13:20:32.493Z,99600.22
2018-12-25T13:23:03.394Z,99587.89
2018-12-25T13:25:34.204Z,99604.12
2018-12-25T13:28:05.277Z,99606.98
2018-12-25T13:30:38.771Z,99605.78
2018-12-25T13:33:12.405Z,99616.75
2018-12-25T13:35:43.591Z,99606.23
2018-12-25T13:38:14.121Z,99599.13
2018-12-25T13:40:44.831Z,99610.09
2018-12-25T13:43:17.090Z,99607.89
2018-12-25T13:45:49.726Z,99614.09
2018-12-25T13:48:21.388Z,99612.94
2018-12-25T13:50:53.869Z,99609.31
2018-12-25T13:53:26.426Z,99610.92
2018-12-25T13:55:57.406Z,99616.83
2018-12-25T13:58:30.528Z,99618.86
2018-12-25T14:01:01.317Z,99616.42
2018-12-25T14:03:36.789Z,99618.03
2018-12-25T14:06:07.473Z,99614.55
2018-12-25T14:08:38.754Z,99612.18
2018-12-25T14:11:09.371Z,99613.72
2018-12-25T14:13:41.829Z,99615.98
2018-12-25T14:16:12.730Z,99620.76
2018-12-25T14:18:43.361Z,99624.98
2018-12-25T14:21:13.920Z,99628.91
2018-12-25T14:23:45.976Z,99633.96
2018-12-25T14:26:16.796Z,99644.58
2018-12-25T14:28:47.331Z,99643.47
2018-12-25T14:31:18.517Z,99644.17
2018-12-25T14:33:49.181Z,99646.25
2018-12-25T14:36:19.970Z,99639.56
2018-12-25T14:39:01.034Z,99646.65
2018-12-25T14:41:22.998Z,99638.56
2018-12-25T14:43:56.168Z,99637.60
2018-12-25T14:46:28.029Z,99638.30
2018-12-25T14:49:01.596Z,99640.70
2018-12-25T14:51:33.269Z,99636.63
2018-12-25T14:54:09.883Z,99643.75
2018-12-25T14:56:42.715Z,99644.27
2018-12-25T14:59:13.695Z,99647.65
2018-12-25T15:01:44.597Z,99649.77
2018-12-25T15:04:15.373Z,99649.28
2018-12-25T15:06:46.077Z,99653.92
2018-12-25T15:09:16.992Z,99658.37
2018-12-25T15:11:47.677Z,99669.92
2018-12-25T15:14:18.720Z,99662.77
2018-12-25T15:16:51.554Z,99660.88
2018-12-25T15:19:24.831Z,99665.08
2018-12-25T15:21:55.467Z,99675.27
2018-12-25T15:24:26.941Z,99668.41
2018-12-25T15:27:04.559Z,99671.24
2018-12-25T15:29:44.211Z,99672.31
2018-12-25T15:32:15.287Z,99664.83
2018-12-25T15:34:46.736Z,99662.45
2018-12-25T15:37:17.510Z,99663.59
2018-12-25T15:39:48.860Z,99660.55
2018-12-25T15:42:22.783Z,99660.55
2018-12-25T15:44:54.743Z,99663.98
2018-12-25T15:47:25.777Z,99661.02
2018-12-25T15:50:06.477Z,99663.63
2018-12-25T15:52:40.809Z,99652.72
2018-12-25T15:55:13.859Z,99666.25
2018-12-25T15:57:47.619Z,99664.45
2018-12-25T16:00:20.757Z,99655.77
2018-12-25T16:02:52.207Z,99656.67
2018-12-25T16:05:25.945Z,99665.31
2018-12-25T16:07:56.968Z,99670.53
2018-12-25T16:10:30.173Z,99672.55
2018-12-25T16:13:05.906Z,99664.47
2018-12-25T16:15:39.223Z,99664.02
2018-12-25T16:18:21.313Z,99668.91
2018-12-25T16:20:52.826Z,99659.66
2018-12-25T16:23:25.944Z,99659.17
2018-12-25T16:25:56.859Z,99657.34
2018-12-25T16:28:27.392Z,99645.48
2018-12-25T16:31:00.254Z,99639.16
2018-12-25T16:33:31.916Z,99640.52
2018-12-25T16:36:09.766Z,99642.28
2018-12-25T16:38:40.193Z,99638.64
2018-12-25T16:41:12.595Z,99636.25
2018-12-25T16:43:43.321Z,99648.16
2018-12-25T16:46:18.388Z,99654.48
2018-12-25T16:48:49.326Z,99646.53
2018-12-25T16:51:20.249Z,99645.56
2018-12-25T16:53:53.713Z,99636.98
2018-12-25T16:56:26.639Z,99626.70
2018-12-25T16:58:58.239Z,99628.89
2018-12-25T17:01:30.012Z,99640.47
2018-12-25T17:04:04.499Z,99636.61
2018-12-25T17:06:37.209Z,99628.20
2018-12-25T17:09:08.777Z,99639.21
2018-12-25T17:11:41.565Z,99635.55
2018-12-25T17:14:12.594Z,99635.94
2018-12-25T17:16:43.559Z,99629.09
2018-12-25T17:19:14.846Z,99641.55
2018-12-25T17:21:46.731Z,99631.83
2018-12-25T17:24:18.499Z,99629.36
2018-12-25T17:26:52.565Z,99629.98
2018-12-25T17:29:42.080Z,99637.14
2018-12-25T17:32:24.639Z,99625.39
2018-12-25T17:35:14.106Z,99628.43
2018-12-25T17:37:56.587Z,99630.03
2018-12-25T17:40:46.013Z,99552.58
2018-12-25T17:43:28.524Z,99629.81
2018-12-25T17:46:17.907Z,99614.98
2018-12-25T17:49:00.186Z,99552.32
2018-12-25T17:51:49.590Z,99622.09
2018-12-25T17:54:32.407Z,99580.13
2018-12-25T17:57:21.829Z,99622.31
2018-12-25T18:00:04.389Z,99624.48
2018-12-25T18:02:53.808Z,99613.22
2018-12-25T18:05:35.720Z,99613.54
2018-12-25T18:08:25.185Z,99564.64
2018-12-25T18:11:07.412Z,99541.41
2018-12-25T18:13:56.791Z,99596.42
2018-12-25T18:16:39.370Z,99602.45
2018-12-25T18:19:28.942Z,99586.48
2018-12-25T18:22:11.431Z,99547.98
2018-12-25T18:25:00.822Z,99611.24
2018-12-25T18:27:43.290Z,99599.61
2018-12-25T18:30:32.652Z,99584.70
2018-12-25T18:33:14.667Z,99602.13
2018-12-25T18:35:56.481Z,99608.05
2018-12-25T18:38:45.878Z,99608.19
2018-12-25T18:41:28.333Z,99605.94
2018-12-25T18:44:17.747Z,99605.30
2018-12-25T18:46:59.984Z,99603.78
2018-12-25T18:49:49.332Z,99606.61
2018-12-25T18:52:31.663Z,99614.47
2018-12-25T18:55:21.111Z,99607.47
2018-12-25T18:58:03.612Z,99606.99
2018-12-25T19:00:53.052Z,99604.52
2018-12-25T19:03:42.175Z,99612.69
2018-12-25T19:06:12.404Z,99605.91
2018-12-25T19:08:42.604Z,99614.00
2018-12-25T19:11:14.190Z,99614.70
2018-12-25T19:13:44.655Z,99607.22
2018-12-25T19:16:15.040Z,99599.87
2018-12-25T19:18:45.188Z,99599.53
2018-12-25T19:21:15.397Z,99603.56
2018-12-25T19:24:01.820Z,99602.47
2018-12-25T19:26:32.147Z,99600.60
2018-12-25T19:29:02.363Z,99604.16
2018-12-25T19:31:32.573Z,99604.86
2018-12-25T19:34:02.749Z,99611.23
2018-12-25T19:36:33.121Z,99607.33
2018-12-25T19:39:22.549Z,99599.87
2018-12-25T19:42:11.995Z,99597.70
2018-12-25T19:44:54.215Z,99583.45
2018-12-25T19:47:43.645Z,99580.23
2018-12-25T19:50:25.879Z,99570.72
2018-12-25T19:53:15.467Z,99562.89
2018-12-25T19:55:57.980Z,99570.83
2018-12-25T19:58:28.290Z,99550.72
2018-12-25T20:00:58.558Z,99574.23
2018-12-25T20:04:10.087Z,99571.52
2018-12-25T20:07:41.178Z,99575.73
2018-12-25T20:11:14.731Z,99574.59
2018-12-25T20:14:33.849Z,99573.84
2018-12-25T20:18:07.309Z,99576.67
2018-12-25T20:21:26.580Z,99564.27
2018-12-25T20:24:57.170Z,99554.38
2018-12-25T20:28:17.513Z,99554.13
2018-12-25T20:31:49.681Z,99560.77
2018-12-25T20:35:01.080Z,99561.59
2018-12-25T20:38:04.535Z,99554.14
2018-12-25T20:41:38.015Z,99543.76
2018-12-25T20:45:05.707Z,99537.05
2018-12-25T20:48:25.452Z,99505.97
2018-12-25T20:51:32.396Z,99545.03
2018-12-25T20:55:01.370Z,99535.97
2018-12-25T21:01:34.896Z,99517.72
2018-12-25T21:04:36.200Z,99518.13
2018-12-25T21:08:03.876Z,99498.43
2018-12-25T21:11:05.109Z,99521.66
2018-12-25T21:14:32.769Z,99513.86
2018-12-25T21:17:39.976Z,99515.95
2018-12-25T21:21:07.689Z,99501.16
2018-12-25T21:24:09.185Z,99508.74
2018-12-25T21:27:36.844Z,99439.52
2018-12-25T21:30:19.561Z,99468.55
2018-12-25T21:33:09.072Z,99507.52
2018-12-25T21:35:51.251Z,99481.08
2018-12-25T21:38:40.756Z,99510.56
2018-12-25T21:41:23.204Z,99501.42
2018-12-25T21:47:21.121Z,99477.42
2018-12-25T21:50:21.269Z,99464.61
2018-12-25T21:53:11.234Z,99443.11
2018-12-25T21:55:53.462Z,99514.91
2018-12-25T21:58:42.926Z,99518.72
2018-12-25T22:01:25.673Z,99525.34
2018-12-25T22:07:23.601Z,99519.91
2018-12-25T22:09:53.797Z,99450.91
2018-12-25T22:12:24.053Z,99505.84
2018-12-25T22:14:54.403Z,99503.16
2018-12-25T22:17:24.709Z,99510.83
2018-12-25T22:19:55.172Z,99509.92
2018-12-25T22:22:25.655Z,99499.23
2018-12-25T22:24:55.956Z,99497.80
2018-12-25T22:27:26.134Z,99493.78
2018-12-25T22:29:57.485Z,99487.30
2018-12-25T22:32:28.084Z,99487.46
2018-12-25T22:34:58.298Z,99490.56
2018-12-25T22:37:28.632Z,99480.13
2018-12-25T22:39:58.960Z,99474.82
2018-12-25T22:42:29.349Z,99474.63
2018-12-25T22:44:59.921Z,99481.94
2018-12-25T22:47:30.296Z,99476.50
2018-12-25T22:50:00.640Z,99466.77
2018-12-25T22:52:31.105Z,99463.83
2018-12-25T22:55:01.501Z,99469.95
2018-12-25T22:57:32.087Z,99458.66
2018-12-25T23:00:02.767Z,99470.50
2018-12-25T23:02:33.230Z,99463.38
2018-12-25T23:05:03.817Z,99466.38
2018-12-25T23:07:34.175Z,99469.67
2018-12-25T23:10:05.216Z,99457.95
2018-12-25T23:12:35.526Z,99460.70
2018-12-25T23:15:07.358Z,99460.77
2018-12-25T23:17:37.791Z,99456.58
2018-12-25T23:20:08.253Z,99454.56
2018-12-25T23:22:38.616Z,99451.53
2018-12-25T23:25:09.009Z,99446.52
2018-12-25T23:27:39.358Z,99448.02
2018-12-25T23:30:09.709Z,99447.06
2018-12-25T23:32:39.882Z,99438.25
2018-12-25T23:35:10.331Z,99442.59
2018-12-25T23:37:40.802Z,99441.34
2018-12-25T23:40:11.294Z,99441.28
2018-12-25T23:42:41.550Z,99432.14
2018-12-25T23:45:11.985Z,99441.71
2018-12-25T23:47:42.421Z,99439.22
2018-12-25T23:50:12.896Z,99434.88
2018-12-25T23:52:43.466Z,99445.08
2018-12-25T23:55:13.853Z,99443.77
2018-12-25T23:57:44.111Z,99444.45
